• Join FlightAware (Why Join?)
  • Login
  • US Flag 
06:47AM EDT


 

Airport Tracker/Info


-or-


 

Live Flight TrackerFlight Track Log ✈ VP-BLX ✈ 18-Nov-2013 ✈ MUHA / HAV - UUEE / SVO

Flight Track Log - Related Links

Times and Time Zones

All times are in EST time to prevent confusion due to time zone crossing. See the VP-BLX flight status page for this flight to view local times or setup timezone preferences in your user account.

Time Position Orientation Groundspeed Altitude Reporting Facility
EST Latitude Longitude Course Direction KTS MPH feet Rate Location/Type
07:14PM 23.1633 -82.1744 29° Northeast 458 527 8,900  Level Miami Center
07:15PM 23.2197 -82.1089 47° Northeast 366 421 10,700 1,500 Climbing Miami Center
07:16PM 23.2872 -82.0328 46° Northeast 344 396 11,900 1,620 Climbing Miami Center
07:17PM 23.3410 -82.1955 29° Northeast  Level Estimated
07:17PM 23.3586 -81.9542 45° Northeast 344 396 14,000  Level Miami Center
07:18PM 23.4602 -82.1229 29° Northeast  Level Estimated
07:18PM 23.4325 -81.8689 47° Northeast 365 420 16,100  Level Miami Center
07:19PM 23.5086 -81.7789 47° Northeast 386 444 17,800 1,620 Climbing Miami Center
07:20PM 23.5889 -81.6892 46° Northeast 396 456 19,400 1,500 Climbing Miami Center
07:21PM 23.6711 -81.5950 46° Northeast 413 475 20,900 1,500 Climbing Miami Center
07:22PM 23.7536 -81.4981 47° Northeast 424 488 22,400 1,380 Climbing Miami Center
07:23PM 23.8356 -81.4081 45° Northeast 442 509 23,700 1,200 Climbing Miami Center
07:24PM 23.9283 -81.3114 44° Northeast 448 516 24,900 1,260 Climbing Miami Center
07:25PM 24.0250 -81.2169 42° Northeast 454 522 26,300 1,260 Climbing Miami Center
07:26PM 24.1239 -81.1203 42° Northeast 459 528 27,500 1,020 Climbing Miami Center
07:27PM 24.2228 -81.0236 42° Northeast 470 541 28,400 960 Climbing Miami Center
07:28PM 24.3344 -80.9133 42° Northeast 475 547 29,500 1,140 Climbing Miami Center
07:29PM 24.4286 -80.8275 40° Northeast 481 554 30,700 1,200 Climbing Miami Center
07:30PM 24.5294 -80.7256 43° Northeast 481 554 32,000 1,440 Climbing Miami Center
07:31PM 24.6408 -80.6169 42° Northeast 481 554 33,600 1,080 Climbing Miami Center
07:32PM 24.7267 -80.5328 42° Northeast 468 539 34,200 660 Climbing Miami Center
07:33PM 24.8272 -80.4350 41° Northeast 468 539 35,000 360 Climbing Miami Center
07:34PM 24.9256 -80.3372 42° Northeast 475 547 35,000  Level Miami Center
07:35PM 25.0261 -80.2367 42° Northeast 475 547 35,000  Level Miami Center
07:36PM 25.1244 -80.1386 42° Northeast 475 547 35,000  Level Miami Center
07:37PM 25.2247 -80.0403 42° Northeast 475 547 35,000  Level Miami Center
07:38PM 25.3228 -79.9439 42° Northeast 475 547 35,000  Level Miami Center
07:39PM 25.4231 -79.8431 42° Northeast 475 547 35,000  Level Miami Center
07:40PM 25.5211 -79.7442 42° Northeast 475 547 35,000  Level Miami Center
07:46PM 26.1278 -79.1811 42° Northeast 457 526 35,000  Level FlightAware ADS-B (KMIA)
07:46PM 26.1939 -79.1692 North 457 526 35,000  Level FlightAware ADS-B (KMIA)
07:47PM 26.2763 -79.1538 10° North 459 528 35,000  Level FlightAware ADS-B (KMIA)
07:48PM 26.4259 -79.1262 North 462 532 35,000  Level FlightAware ADS-B (KMIA)
07:49PM 26.4737 -79.1171 10° North 462 532 35,000  Level FlightAware ADS-B (KMIA)
07:50PM 26.6400 -79.0856 10° North 452 520 35,000  Level Miami Center
07:51PM 26.7656 -79.0600 10° North 452 520 35,000  Level Miami Center
07:52PM 26.8933 -79.0392 North 452 520 35,000  Level Miami Center
07:53PM 27.0211 -79.0158 North 457 526 35,000  Level Miami Center
07:54PM 27.1447 -78.9878 11° North 465 535 35,000  Level Miami Center
07:59PM 27.8328 -78.8563 11° North 462 532 35,000  Level FlightAware ADS-B (KMIA)
08:00PM 27.9729 -78.8290 10° North 464 534 35,000  Level FlightAware ADS-B (KMIA)
08:01PM 28.0389 -78.8186 10° North 458 527 35,000  Level Miami Center
08:02PM 28.1622 -78.7947 10° North 458 527 35,000  Level Miami Center
08:03PM 28.2878 -78.7711 North 458 527 35,000  Level Miami Center
08:04PM 28.4133 -78.7447 10° North 452 520 35,000  Level Miami Center
08:05PM 28.5411 -78.7211 North 452 520 35,000  Level Miami Center
08:06PM 28.6667 -78.6969 10° North 452 520 35,000  Level Miami Center
08:07PM 28.7942 -78.6708 10° North 452 520 35,000  Level Miami Center
08:08PM 28.9219 -78.6467 North 452 520 35,000  Level Miami Center
08:09PM 29.0472 -78.6225 10° North 452 520 35,000  Level Miami Center
08:10PM 29.1667 -78.5936 12° North 452 520 35,000  Level Miami Center
08:11PM 29.2983 -78.5719 North 452 520 35,000  Level Miami Center
08:12PM 29.4239 -78.5453 10° North 452 520 35,000  Level Miami Center
08:13PM 29.5533 -78.5233 North 458 527 35,000  Level Miami Center
08:14PM 29.7539 -78.4792 11° North 482 555 35,000  Level Jacksonville Center
08:15PM 29.8761 -78.4519 11° North 471 542 35,000  Level Jacksonville Center
08:16PM 30.0003 -78.4222 12° North 465 535 35,000  Level Jacksonville Center
08:17PM 30.1311 -78.4019 North 460 529 35,000  Level Jacksonville Center
08:18PM 30.2658 -78.3739 10° North 460 529 35,000  Level Jacksonville Center
08:19PM 30.3983 -78.3483 North 460 529 35,000  Level Jacksonville Center
08:20PM 30.5206 -78.3208 11° North 466 536 35,000  Level Jacksonville Center
08:21PM 30.6469 -78.2931 11° North 467 537 35,000  Level Jacksonville Center
08:22PM 30.7775 -78.2675 10° North 470 541 35,000  Level Jacksonville Center
08:23PM 30.9081 -78.2417 10° North 469 540 35,000  Level Jacksonville Center
08:24PM 31.0322 -78.2139 11° North 464 534 35,000  Level Jacksonville Center
08:25PM 31.1606 -78.1831 12° North 464 534 35,000  Level Jacksonville Center
08:26PM 31.2889 -78.1547 11° North 464 534 35,000  Level Jacksonville Center
08:27PM 31.4153 -78.1314 North 464 534 35,000  Level Jacksonville Center
08:28PM 31.5417 -78.1031 11° North 464 534 35,000  Level Jacksonville Center
08:29PM 31.6658 -78.0769 10° North 464 534 35,000  Level Jacksonville Center
08:30PM 31.7903 -78.0533 North 464 534 35,000  Level Jacksonville Center
08:31PM 31.9186 -78.0272 10° North 464 534 35,000  Level Jacksonville Center
08:32PM 32.0428 -77.9983 11° North 464 534 35,000  Level Jacksonville Center
08:33PM 32.1692 -77.9747 North 464 534 35,000  Level Jacksonville Center
08:34PM 32.2953 -77.9456 11° North 464 534 35,000  Level Jacksonville Center
08:35PM 32.4236 -77.9189 10° North 464 534 35,000  Level Jacksonville Center
08:36PM 32.5497 -77.8900 11° North 464 534 35,000  Level Jacksonville Center
08:37PM 32.6783 -77.8656 North 464 534 35,000  Level Jacksonville Center
08:38PM 32.8067 -77.8386 10° North 464 534 35,000  Level Jacksonville Center
08:39PM 32.9306 -77.8094 11° North 464 534 35,000  Level Jacksonville Center
08:40PM 33.0633 -77.7844 North 464 534 35,000  Level Jacksonville Center
08:41PM 33.1894 -77.7575 10° North 464 534 35,000  Level Jacksonville Center
08:43PM 33.3875 -77.7131 11° North 456 525 35,000  Level Washington Center
08:44PM 33.5111 -77.6864 10° North 451 519 35,000  Level Washington Center
08:45PM 33.6367 -77.6594 10° North 451 519 35,000  Level Washington Center
08:46PM 33.7664 -77.6303 11° North 451 519 35,000  Level Washington Center
08:47PM 33.8922 -77.6008 11° North 456 525 35,000  Level Washington Center
08:48PM 34.0219 -77.5739 10° North 456 525 35,000  Level Washington Center
08:54PM 34.7727 -77.3454 10° North 479 551 35,000  Level FlightAware ADS-B
08:55PM 34.8397 -77.3104 23° Northeast 480 552 35,000  Level FlightAware ADS-B
08:55PM 34.9024 -77.2775 23° Northeast 481 554 35,000  Level FlightAware ADS-B
08:56PM 34.9647 -77.2446 23° Northeast 482 555 35,000  Level FlightAware ADS-B
08:56PM 35.0462 -77.2014 23° Northeast 481 554 35,000  Level FlightAware ADS-B
08:57PM 35.1472 -77.1480 23° Northeast 480 552 35,000  Level FlightAware ADS-B
08:58PM 35.2098 -77.1148 23° Northeast 480 552 35,000  Level FlightAware ADS-B
08:58PM 35.2517 -77.0903 23° Northeast 477 549 35,000  Level Washington Center
08:59PM 35.3714 -77.0261 24° Northeast 477 549 35,000  Level Washington Center
09:00PM 35.4953 -76.9619 23° Northeast 482 555 35,000  Level Washington Center
09:01PM 35.6169 -76.8978 23° Northeast 477 549 35,000  Level Washington Center
09:02PM 35.7364 -76.8331 24° Northeast 477 549 35,000  Level Washington Center
09:03PM 35.8581 -76.7658 24° Northeast 477 549 35,000  Level Washington Center
09:04PM 35.9797 -76.7008 23° Northeast 477 549 35,000  Level Washington Center
09:05PM 36.1036 -76.6333 24° Northeast 477 549 35,000  Level Washington Center
09:06PM 36.2250 -76.5678 24° Northeast 477 549 35,000  Level Washington Center
09:07PM 36.3508 -76.4997 24° Northeast 477 549 35,000  Level Washington Center
09:08PM 36.4722 -76.4339 24° Northeast 477 549 35,000  Level Washington Center
09:14PM 37.2759 -75.9959 24° Northeast 487 560 35,000  Level FlightAware ADS-B (KWWD)
09:15PM 37.3377 -75.9628 23° Northeast 486 559 35,000  Level FlightAware ADS-B (KWWD)
09:15PM 37.4168 -75.9205 23° Northeast 487 560 35,000  Level FlightAware ADS-B (KWWD)
09:16PM 37.4807 -75.8861 23° Northeast 487 560 35,000  Level FlightAware ADS-B (KWWD)
09:16PM 37.5457 -75.8472 25° Northeast 494 568 35,000  Level FlightAware ADS-B (KWWD)
09:17PM 37.6180 -75.7926 31° Northeast 490 564 35,000  Level FlightAware ADS-B (KWWD)
09:18PM 37.6824 -75.7455 30° Northeast 490 564 35,000  Level FlightAware ADS-B (KWWD)
09:18PM 37.7624 -75.6862 30° Northeast 492 566 35,000  Level FlightAware ADS-B (KWWD)
09:20PM 37.9619 -75.5354 31° Northeast 505 581 35,000  Level FlightAware ADS-B (KWWD)
09:20PM 38.0232 -75.4887 31° Northeast 508 585 35,000  Level FlightAware ADS-B (KWWD)
09:21PM 38.0391 -75.4755 33° Northeast 513 590 35,000  Level FlightAware ADS-B (KSBY)
09:21PM 38.1326 -75.3812 38° Northeast 522 601 35,000  Level FlightAware ADS-B (KWWD)
09:22PM 38.1900 -75.3229 39° Northeast 515 593 35,000  Level FlightAware ADS-B (KWWD)
09:22PM 38.2441 -75.2673 39° Northeast 522 601 35,000  Level FlightAware ADS-B (KWWD)
09:23PM 38.3072 -75.2015 39° Northeast 521 600 35,000  Level FlightAware ADS-B (KWWD)
09:23PM 38.3629 -75.1429 39° Northeast 519 597 35,000  Level FlightAware ADS-B (KWWD)
09:24PM 38.4352 -75.0668 39° Northeast 520 598 35,000  Level FlightAware ADS-B (KWWD)
09:25PM 38.4920 -75.0068 40° Northeast 519 597 35,000  Level FlightAware ADS-B (KSBY)
09:25PM 38.5587 -74.9362 40° Northeast 509 586 35,000  Level FlightAware ADS-B (KWWD)
09:26PM 38.6142 -74.8773 40° Northeast 508 585 35,000  Level FlightAware ADS-B (KWWD)
09:29PM 38.9305 -74.5396 40° Northeast 509 586 35,000  Level FlightAware ADS-B (KWWD)
09:29PM 38.9858 -74.4801 40° Northeast 509 586 35,000  Level FlightAware ADS-B (KWWD)
09:30PM 39.0406 -74.4210 40° Northeast 508 585 35,000  Level FlightAware ADS-B (KWWD)
09:30PM 39.1127 -74.3429 40° Northeast 507 583 35,000  Level FlightAware ADS-B (KWWD)
09:31PM 39.1836 -74.2662 40° Northeast 508 585 35,000  Level FlightAware ADS-B (KWWD)
09:31PM 39.2398 -74.2051 40° Northeast 509 586 35,000  Level FlightAware ADS-B (KWWD)
09:33PM 39.3686 -74.0648 40° Northeast 512 589 35,000  Level FlightAware ADS-B (KWWD)
09:33PM 39.4229 -74.0054 40° Northeast 513 590 35,000  Level FlightAware ADS-B (KWWD)
09:34PM 39.4790 -73.9438 40° Northeast 514 592 35,000  Level FlightAware ADS-B (KWWD)
09:34PM 39.5519 -73.8637 40° Northeast 515 593 35,000  Level FlightAware ADS-B (KWWD)
09:35PM 39.6235 -73.7846 40° Northeast 515 593 35,000  Level FlightAware ADS-B (KWWD)
09:35PM 39.6806 -73.7216 40° Northeast 515 593 35,000  Level FlightAware ADS-B (KWWD)
09:36PM 39.7526 -73.6418 40° Northeast 515 593 35,000  Level FlightAware ADS-B (KWWD)
09:37PM 39.8064 -73.5820 40° Northeast 516 594 35,000  Level FlightAware ADS-B (KWWD)
09:37PM 39.8651 -73.5167 41° Northeast 517 595 35,000  Level FlightAware ADS-B (KWWD)
09:38PM 39.9214 -73.4538 41° Northeast 517 595 35,000  Level FlightAware ADS-B (KWWD)
09:38PM 39.9930 -73.3738 41° Northeast 517 595 35,000  Level FlightAware ADS-B (KWWD)
09:39PM 40.0474 -73.3130 41° Northeast 517 595 35,000  Level FlightAware ADS-B (KWWD)
09:39PM 40.1063 -73.2560 37° Northeast 513 590 35,000  Level FlightAware ADS-B (KWWD)
09:40PM 40.1650 -73.2063 33° Northeast 518 596 35,000  Level FlightAware ADS-B (KSNC)
09:40PM 40.2330 -73.1509 32° Northeast 518 596 35,000  Level FlightAware ADS-B (KSNC)
09:41PM 40.2945 -73.0993 33° Northeast 518 596 35,000  Level FlightAware ADS-B (KSNC)
09:42PM 40.3801 -73.0264 33° Northeast 519 597 35,000  Level FlightAware ADS-B (KWWD)
09:42PM 40.4478 -72.9683 33° Northeast 520 598 35,000  Level FlightAware ADS-B (KWWD)
09:43PM 40.5278 -72.8997 33° Northeast 521 600 35,000  Level FlightAware ADS-B (KWWD)
09:43PM 40.5984 -72.8390 33° Northeast 524 603 35,000  Level FlightAware ADS-B (KSNC)
09:44PM 40.6650 -72.7816 33° Northeast 518 596 35,000  Level FlightAware ADS-B (KWWD)
09:44PM 40.6975 -72.7536 33° Northeast 518 596 35,000  Level FlightAware ADS-B (KWWD)
09:44PM 40.7217 -72.7326 33° Northeast 518 596 35,000  Level FlightAware ADS-B (KWWD)
09:45PM 40.7864 -72.6766 33° Northeast 525 604 35,000  Level FlightAware ADS-B (KSNC)
09:46PM 40.8571 -72.6151 33° Northeast 525 604 35,000  Level FlightAware ADS-B (KSNC)
09:46PM 40.9163 -72.5635 33° Northeast 525 604 35,000  Level FlightAware ADS-B (KSNC)
09:47PM 40.9795 -72.5084 33° Northeast 526 605 35,000  Level FlightAware ADS-B (KSNC)
09:47PM 41.0364 -72.4587 33° Northeast 528 608 35,000  Level FlightAware ADS-B
09:48PM 41.1154 -72.3894 33° Northeast 530 610 35,000  Level FlightAware ADS-B (KSNC)
09:48PM 41.1830 -72.3300 33° Northeast 531 611 35,000  Level FlightAware ADS-B
09:49PM 41.2463 -72.2754 33° Northeast 530 610 35,000  Level FlightAware ADS-B
09:49PM 41.3041 -72.2328 29° Northeast 528 608 35,000  Level FlightAware ADS-B
09:50PM 41.3827 -72.1756 29° Northeast 528 608 35,000  Level FlightAware ADS-B (KSNC)
09:50PM 41.4427 -72.1314 29° Northeast 527 606 35,000  Level FlightAware ADS-B (KSNC)
09:51PM 41.5142 -72.0801 28° Northeast 528 608 35,000  Level FlightAware ADS-B (EDDS / STR)
09:51PM 41.5801 -72.0326 28° Northeast 529 609 35,000  Level FlightAware ADS-B (EDDS / STR)
09:52PM 41.6502 -71.9814 29° Northeast 530 610 35,000  Level FlightAware ADS-B (EDDS / STR)
09:52PM 41.7138 -71.9349 29° Northeast 529 609 35,000  Level FlightAware ADS-B (EDDS / STR)
09:53PM 41.7796 -71.8866 29° Northeast 530 610 35,000  Level FlightAware ADS-B (EDDS / STR)
09:53PM 41.8369 -71.8446 29° Northeast 530 610 35,000  Level FlightAware ADS-B (EDDS / STR)
09:54PM 41.9125 -71.7891 29° Northeast 529 609 35,000  Level FlightAware ADS-B (EDDS / STR)
09:54PM 41.9880 -71.7332 29° Northeast 519 597 35,000  Level FlightAware ADS-B
09:55PM 42.0509 -71.6867 29° Northeast 521 600 35,000  Level FlightAware ADS-B
09:56PM 42.1272 -71.6301 29° Northeast 526 605 35,000  Level FlightAware ADS-B (KSNC)
09:56PM 42.1938 -71.5805 29° Northeast 524 603 35,000  Level FlightAware ADS-B
09:57PM 42.2549 -71.5350 29° Northeast 522 601 35,000  Level FlightAware ADS-B
09:57PM 42.2836 -71.5136 29° Northeast 516 594 35,000  Level FlightAware ADS-B (EDDS / STR)
09:57PM 42.3505 -71.4636 29° Northeast 517 595 35,000  Level FlightAware ADS-B
09:58PM 42.4129 -71.4169 29° Northeast 524 603 35,000  Level FlightAware ADS-B (EDDS / STR)
09:58PM 42.4536 -71.3864 29° Northeast 524 603 35,000  Level FlightAware ADS-B
10:01PM 42.7440 -71.1597 30° Northeast  Level FlightAware Approximate
10:02PM 42.8666 -71.0632 30° Northeast  Level FlightAware Approximate
10:03PM 42.9899 -70.9682 29° Northeast  Level FlightAware Approximate
10:04PM 43.1132 -70.8732 29° Northeast  Level FlightAware Approximate
10:04PM 43.1572 -70.8489 30° Northeast 529 609 35,000  Level Boston Center
10:05PM 43.2364 -70.7778 29° Northeast  Level FlightAware Approximate
10:06PM 43.3596 -70.6820 29° Northeast  Level FlightAware Approximate
10:07PM 43.4826 -70.5858 30° Northeast  Level FlightAware Approximate
10:08PM 43.6056 -70.4892 30° Northeast  Level FlightAware Approximate
10:09PM 43.7285 -70.3922 30° Northeast  Level FlightAware Approximate
10:09PM 43.8784 -70.2859 30° Northeast 543 625 35,000  Level FlightAware ADS-B
10:10PM 43.9835 -70.2023 30° Northeast 546 628 35,000  Level FlightAware ADS-B (CYQI)
10:11PM 44.0785 -70.1265 30° Northeast 538 619 35,000  Level FlightAware ADS-B
10:11PM 44.1419 -70.0758 30° Northeast 546 628 35,000  Level FlightAware ADS-B (CYQI)
10:12PM 44.2539 -69.9859 30° Northeast 547 629 35,000  Level FlightAware ADS-B (CYQI)
10:12PM 44.2931 -69.9543 30° Northeast 546 628 35,000  Level FlightAware ADS-B (CYQI)
10:12PM 44.3001 -69.9487 30° Northeast 539 620 35,000  Level FlightAware ADS-B
10:13PM 44.3950 -69.8719 30° Northeast 550 633 35,000  Level FlightAware ADS-B (CYQI)
10:14PM 44.4937 -69.7917 30° Northeast 549 632 35,000  Level FlightAware ADS-B (CYSG)
10:15PM 44.5921 -69.7115 30° Northeast 551 634 35,000  Level FlightAware ADS-B (CYQI)
10:15PM 44.6545 -69.6604 30° Northeast 553 636 35,000  Level FlightAware ADS-B (CYQI)
10:16PM 44.7179 -69.6085 30° Northeast 552 635 35,000  Level FlightAware ADS-B (KBGR)
10:16PM 44.7811 -69.5566 30° Northeast 553 636 35,000  Level FlightAware ADS-B (CYSG)
10:17PM 44.8629 -69.4892 30° Northeast 550 633 35,000  Level FlightAware ADS-B (CYSG)
10:17PM 44.9543 -69.4137 30° Northeast 551 634 35,000  Level FlightAware ADS-B (CYQI)
10:18PM 45.0248 -69.3553 30° Northeast 548 631 35,000  Level FlightAware ADS-B (KBGR)
10:19PM 45.1093 -69.2849 30° Northeast 547 629 35,000  Level FlightAware ADS-B (CYQI)
10:19PM 45.1785 -69.2271 30° Northeast 547 629 35,000  Level FlightAware ADS-B (CYSG)
10:20PM 45.2897 -69.1342 31° Northeast 545 627 35,000  Level Boston Center
10:22PM 45.4686 -68.9681 32° Northeast  Level FlightAware Approximate
10:23PM 45.5881 -68.8594 32° Northeast  Level FlightAware Approximate
10:24PM 45.7094 -68.7549 31° Northeast  Level FlightAware Approximate
10:25PM 45.8313 -68.6514 31° Northeast  Level FlightAware Approximate
10:26PM 46.1185 -68.4255 31° Northeast 547 629 35,000  Level FlightAware ADS-B (KBGR)
10:28PM 46.1860 -68.3667 31° Northeast 540 621 35,000  Level FlightAware ADS-B (CYSG)
10:29PM 46.4667 -68.1167 31° Northeast 540 621 35,000  Level Moncton Center
10:30PM 46.5833 -68.0000 34° Northeast 530 610 35,000  Level Moncton Center
10:31PM 46.7164 -67.8961 28° Northeast 534 615 35,000  Level Boston Center
10:32PM 46.8428 -67.7822 32° Northeast 534 615 35,000  Level Boston Center
10:33PM 46.9667 -67.6667 32° Northeast 520 598 35,000  Level Moncton Center
10:34PM 47.0833 -67.5500 34° Northeast 530 610 35,000  Level Moncton Center
10:35PM 47.2167 -67.4333 31° Northeast 530 610 35,000  Level Moncton Center
10:36PM 47.3500 -67.3167 31° Northeast 520 598 35,000  Level Moncton Center
10:37PM 47.4667 -67.2000 34° Northeast 520 598 35,000  Level Moncton Center
10:38PM 47.5833 -67.0833 34° Northeast 530 610 35,000  Level Moncton Center
10:39PM 47.7167 -66.9667 30° Northeast 530 610 35,000  Level Moncton Center
10:40PM 47.8333 -66.8500 34° Northeast 530 610 35,000  Level Moncton Center
10:42PM 47.9918 -66.6977 33° Northeast  Level FlightAware Approximate
10:45PM 48.4000 -66.3000 33° Northeast 530 610 35,000  Level Gander Center
10:45PM 48.4500 -66.2333 41° Northeast 530 610 35,000  Level Moncton Center
10:46PM 48.5833 -66.1167 30° Northeast 530 610 35,000  Level Moncton Center
10:47PM 48.7167 -66.0000 30° Northeast 540 621 35,000  Level Moncton Center
10:48PM 48.8333 -65.8667 37° Northeast 540 621 35,000  Level Moncton Center
10:49PM 48.8205 -65.8823 33° Northeast  Level FlightAware Approximate
10:49PM 48.9667 -65.7500 30° Northeast 530 610 35,000  Level Moncton Center
10:50PM 48.9384 -65.7636 33° Northeast  Level FlightAware Approximate
10:50PM 49.0833 -65.6167 37° Northeast 530 610 35,000  Level Moncton Center
10:51PM 49.2167 -65.5000 30° Northeast 530 610 35,000  Level Moncton Center
10:52PM 49.3333 -65.3667 37° Northeast 540 621 35,000  Level Moncton Center
10:53PM 49.4500 -65.2500 33° Northeast 530 610 35,000  Level Moncton Center
10:54PM 49.5667 -65.1167 37° Northeast 530 610 35,000  Level Moncton Center
10:55PM 49.7000 -65.0000 29° Northeast 530 610 35,000  Level Moncton Center
10:56PM 49.8167 -64.8667 36° Northeast 530 610 35,000  Level Moncton Center
10:57PM 49.9500 -64.7333 33° Northeast 530 610 35,000  Level Moncton Center
10:58PM 50.0667 -64.6000 36° Northeast 530 610 35,000  Level Moncton Center
10:59PM 50.1833 -64.4833 33° Northeast 530 610 35,000  Level Moncton Center
11:00PM 50.3167 -64.3500 33° Northeast 530 610 35,000  Level Moncton Center
11:01PM 50.4333 -64.2167 36° Northeast 520 598 35,000  Level Moncton Center
11:02PM 50.5500 -64.0833 36° Northeast 520 598 35,000  Level Moncton Center
11:03PM 50.6667 -63.9500 36° Northeast 520 598 35,000  Level Moncton Center
11:04PM 50.8000 -63.8167 32° Northeast 520 598 35,000  Level Moncton Center
11:06PM 50.9667 -63.6167 37° Northeast 520 598 35,000  Level Gander Center
11:07PM 51.0833 -63.5000 32° Northeast 520 598 35,000  Level Gander Center
11:07PM 51.1500 -63.4167 38° Northeast 520 598 35,000  Level Moncton Center
11:08PM 51.2667 -63.2667 39° Northeast 520 598 35,000  Level Moncton Center
11:09PM 51.3833 -63.1667 28° Northeast 520 598 35,000  Level Moncton Center
11:10PM 51.4833 -63.0333 40° Northeast 510 587 35,000  Level Moncton Center
11:11PM 51.6000 -62.8833 39° Northeast 510 587 35,000  Level Moncton Center
11:12PM 51.7167 -62.7500 35° Northeast 520 598 35,000  Level Moncton Center
11:13PM 51.8333 -62.6167 35° Northeast 520 598 35,000  Level Moncton Center
11:14PM 51.9667 -62.4667 35° Northeast 520 598 35,000  Level Moncton Center
11:15PM 52.0833 -62.3333 35° Northeast 520 598 35,000  Level Moncton Center
11:16PM 52.2000 -62.1833 38° Northeast 520 598 35,000  Level Moncton Center
11:17PM 52.3167 -62.0500 35° Northeast 520 598 35,000  Level Moncton Center
11:18PM 52.4333 -61.9333 31° Northeast 520 598 35,000  Level Moncton Center
11:19PM 52.5333 -61.7500 48° Northeast 520 598 35,000  Level Moncton Center
11:20PM 52.6500 -61.6333 31° Northeast 520 598 35,000  Level Moncton Center
11:21PM 52.7667 -61.4667 41° Northeast 510 587 35,000  Level Moncton Center
11:22PM 52.8667 -61.3000 45° Northeast 510 587 35,000  Level Moncton Center
11:23PM 52.9833 -61.1500 38° Northeast 510 587 35,000  Level Moncton Center
11:24PM 53.0667 -60.9667 53° Northeast 510 587 35,000  Level Moncton Center
11:25PM 53.1833 -60.8167 38° Northeast 520 598 35,000  Level Moncton Center
11:26PM 53.3000 -60.6500 40° Northeast 520 598 35,000  Level Moncton Center
11:27PM 53.4000 -60.5000 42° Northeast 510 587 35,000  Level Moncton Center
11:28PM 53.5000 -60.3167 47° Northeast 510 587 35,000  Level Moncton Center
11:29PM 53.6000 -60.1667 42° Northeast 520 598 35,000  Level Moncton Center
11:30PM 53.7167 -60.0167 37° Northeast 510 587 35,000  Level Moncton Center
11:31PM 53.8167 -59.8333 47° Northeast 510 587 35,000  Level Moncton Center
11:33PM 53.9257 -59.6626 43° Northeast  Level FlightAware Approximate
11:38PM 54.5333 -58.6667 44° Northeast 510 587 35,000  Level Moncton Center
11:39PM 54.6333 -58.5000 44° Northeast 510 587 35,000  Level Moncton Center
11:40PM 54.6464 -58.5016 43° Northeast  Level FlightAware Approximate
11:40PM 54.7500 -58.3167 42° Northeast 510 587 35,000  Level Moncton Center
11:41PM 54.7484 -58.3324 44° Northeast  Level FlightAware Approximate
11:41PM 54.8333 -58.1667 46° Northeast 510 587 35,000  Level Moncton Center
11:42PM 54.8502 -58.1623 44° Northeast  Level FlightAware Approximate
11:42PM 54.9333 -58.0000 44° Northeast 510 587 35,000  Level Moncton Center
11:43PM 54.9517 -57.9914 44° Northeast  Level FlightAware Approximate
11:43PM 55.0333 -57.8000 49° Northeast 510 587 35,000  Level Moncton Center
11:44PM 55.1333 -57.6500 41° Northeast 500 575 35,000  Level Moncton Center
11:45PM 55.2333 -57.4500 49° Northeast 500 575 35,000  Level Moncton Center
11:46PM 55.3333 -57.2833 43° Northeast 500 575 35,000  Level Moncton Center
11:47PM 55.4333 -57.1167 43° Northeast 500 575 35,000  Level Moncton Center
11:48PM 55.5333 -56.9667 40° Northeast 490 564 35,000  Level Moncton Center
11:50PM 55.6672 -56.7331 44° Northeast  Level FlightAware Approximate
11:54PM 56.1167 -55.8833 46° Northeast 500 575 35,000  Level Moncton Center
11:55PM 56.2000 -55.7167 48° Northeast 500 575 35,000  Level Moncton Center
11:56PM 56.3167 -55.5500 38° Northeast 490 564 35,000  Level Moncton Center
11:57PM 56.3520 -55.4612 45° Northeast  Level FlightAware Approximate
11:57PM 56.4000 -55.3667 51° Northeast 490 564 35,000  Level Moncton Center
11:58PM 56.4508 -55.2789 46° Northeast  Level FlightAware Approximate
11:58PM 56.5167 -55.1667 43° Northeast 500 575 35,000  Level Gander Center
11:59PM 56.5493 -55.0958 46° Northeast  Level FlightAware Approximate
11:59PM 56.6167 -54.9667 48° Northeast 490 564 35,000  Level Gander Center
12:00AM 56.7000 -54.8000 48° Northeast 480 552 35,000  Level Gander Center
12:01AM 56.8000 -54.6000 48° Northeast 480 552 35,000  Level Gander Center
12:02AM 56.8833 -54.4333 47° Northeast 480 552 35,000  Level Gander Center
12:03AM 56.9667 -54.3000 41° Northeast 480 552 35,000  Level Gander Center
12:06AM 57.1456 -53.9519 46° Northeast  Level FlightAware Approximate
12:13AM 57.8138 -52.6040 47° Northeast  Level FlightAware Approximate
12:14AM 57.9081 -52.4074 48° Northeast  Level FlightAware Approximate
12:15AM 58.0021 -52.2097 48° Northeast  Level FlightAware Approximate
12:16AM 58.0957 -52.0111 48° Northeast  Level FlightAware Approximate
12:17AM 58.1891 -51.8113 48° Northeast  Level FlightAware Approximate
12:18AM 58.2821 -51.6105 49° Northeast  Level FlightAware Approximate
12:19AM 58.3748 -51.4087 49° Northeast  Level FlightAware Approximate
12:20AM 58.4672 -51.2058 49° Northeast  Level FlightAware Approximate
12:21AM 58.5593 -51.0018 49° Northeast  Level FlightAware Approximate
12:22AM 58.6511 -50.7968 49° Northeast  Level FlightAware Approximate
12:23AM 58.7425 -50.5906 49° Northeast  Level FlightAware Approximate
12:24AM 58.8336 -50.3834 50° Northeast  Level FlightAware Approximate
12:25AM 58.9243 -50.1751 50° Northeast  Level FlightAware Approximate
12:26AM 59.0131 -49.9634 55° Northeast  Level FlightAware Approximate
12:27AM 59.0931 -49.7381 55° Northeast  Level FlightAware Approximate
12:28AM 59.1727 -49.5117 55° Northeast  Level FlightAware Approximate
12:29AM 59.2520 -49.2843 56° Northeast  Level FlightAware Approximate
12:30AM 59.3308 -49.0559 56° Northeast  Level FlightAware Approximate
12:31AM 59.4110 -48.8287 55° Northeast  Level FlightAware Approximate
12:32AM 59.4914 -48.6012 55° Northeast  Level FlightAware Approximate
12:33AM 59.5713 -48.3726 55° Northeast  Level FlightAware Approximate
12:34AM 59.6509 -48.1430 56° Northeast  Level FlightAware Approximate
12:35AM 59.7297 -47.9118 56° Northeast  Level FlightAware Approximate
12:36AM 59.8075 -47.6787 56° Northeast  Level FlightAware Approximate
12:37AM 59.8850 -47.4446 57° Northeast  Level FlightAware Approximate
12:38AM 59.9620 -47.2094 57° Northeast  Level FlightAware Approximate
12:39AM 60.0386 -46.9731 57° Northeast  Level FlightAware Approximate
12:40AM 60.1148 -46.7357 57° Northeast  Level FlightAware Approximate
12:41AM 60.1906 -46.4973 57° Northeast  Level FlightAware Approximate
12:42AM 60.2659 -46.2577 58° Northeast  Level FlightAware Approximate
12:43AM 60.3408 -46.0170 58° Northeast  Level FlightAware Approximate
12:44AM 60.4157 -45.7758 58° Northeast  Level FlightAware Approximate
12:45AM 60.4905 -45.5338 58° Northeast  Level FlightAware Approximate
12:46AM 60.5648 -45.2907 58° Northeast  Level FlightAware Approximate
12:47AM 60.6387 -45.0465 58° Northeast  Level FlightAware Approximate
12:48AM 60.7121 -44.8012 58° Northeast  Level FlightAware Approximate
12:49AM 60.7851 -44.5547 59° Northeast  Level FlightAware Approximate
12:50AM 60.8576 -44.3072 59° Northeast  Level FlightAware Approximate
12:51AM 60.9297 -44.0585 59° Northeast  Level FlightAware Approximate
12:52AM 61.0013 -43.8087 59° Northeast  Level FlightAware Approximate
12:53AM 61.0724 -43.5577 60° Northeast  Level FlightAware Approximate
12:54AM 61.1431 -43.3057 60° Northeast  Level FlightAware Approximate
12:55AM 61.2133 -43.0525 60° Northeast  Level FlightAware Approximate
12:56AM 61.2830 -42.7982 60° Northeast  Level FlightAware Approximate
12:57AM 61.3523 -42.5427 60° Northeast  Level FlightAware Approximate
12:58AM 61.4210 -42.2861 61° Northeast  Level FlightAware Approximate
12:59AM 61.4893 -42.0284 61° Northeast  Level FlightAware Approximate
01:00AM 61.5571 -41.7696 61° Northeast  Level FlightAware Approximate
01:01AM 61.6244 -41.5096 61° Northeast  Level FlightAware Approximate
01:02AM 61.6912 -41.2485 62° Northeast  Level FlightAware Approximate
01:03AM 61.7575 -40.9863 62° Northeast  Level FlightAware Approximate
01:04AM 61.8233 -40.7229 62° Northeast  Level FlightAware Approximate
01:05AM 61.8886 -40.4585 62° Northeast  Level FlightAware Approximate
01:06AM 61.9534 -40.1929 62° Northeast  Level FlightAware Approximate
01:07AM 62.0183 -39.9268 62° Northeast  Level FlightAware Approximate
01:08AM 62.0840 -39.6611 62° Northeast  Level FlightAware Approximate
01:09AM 62.1493 -39.3943 62° Northeast  Level FlightAware Approximate
01:10AM 62.2140 -39.1264 63° Northeast  Level FlightAware Approximate
01:11AM 62.2783 -38.8573 63° Northeast  Level FlightAware Approximate
01:12AM 62.3420 -38.5870 63° Northeast  Level FlightAware Approximate
01:13AM 62.4051 -38.3156 63° Northeast  Level FlightAware Approximate
01:14AM 62.4678 -38.0431 63° Northeast  Level FlightAware Approximate
01:15AM 62.5299 -37.7694 64° Northeast  Level FlightAware Approximate
01:16AM 62.5914 -37.4946 64° Northeast  Level FlightAware Approximate
01:17AM 62.6525 -37.2187 64° Northeast  Level FlightAware Approximate
01:18AM 62.7130 -36.9416 64° Northeast  Level FlightAware Approximate
01:19AM 62.7729 -36.6634 65° Northeast  Level FlightAware Approximate
01:20AM 62.8323 -36.3840 65° Northeast  Level FlightAware Approximate
01:21AM 62.8915 -36.1040 65° Northeast  Level FlightAware Approximate
01:22AM 62.9503 -35.8229 65° Northeast  Level FlightAware Approximate
01:23AM 63.0086 -35.5408 65° Northeast  Level FlightAware Approximate
01:24AM 63.0663 -35.2575 66° East  Level FlightAware Approximate
01:25AM 63.1234 -34.9731 66° East  Level FlightAware Approximate
01:26AM 63.1800 -34.6876 66° East  Level FlightAware Approximate
01:27AM 63.2360 -34.4010 66° East  Level FlightAware Approximate
01:28AM 63.2914 -34.1132 67° East  Level FlightAware Approximate
01:29AM 63.3462 -33.8244 67° East  Level FlightAware Approximate
01:30AM 63.4005 -33.5344 67° East  Level FlightAware Approximate
01:31AM 63.4541 -33.2434 67° East  Level FlightAware Approximate
01:32AM 63.5072 -32.9513 68° East  Level FlightAware Approximate
01:33AM 63.5596 -32.6581 68° East  Level FlightAware Approximate
01:34AM 63.6115 -32.3638 68° East  Level FlightAware Approximate
01:35AM 63.6628 -32.0685 69° East  Level FlightAware Approximate
01:36AM 63.7134 -31.7721 69° East  Level FlightAware Approximate
01:37AM 63.7635 -31.4746 69° East  Level FlightAware Approximate
01:38AM 63.8129 -31.1761 69° East  Level FlightAware Approximate
01:39AM 63.8617 -30.8766 70° East  Level FlightAware Approximate
01:40AM 63.9099 -30.5760 70° East  Level FlightAware Approximate
01:41AM 63.9574 -30.2743 70° East  Level FlightAware Approximate
01:42AM 64.0040 -29.9714 72° East  Level FlightAware Approximate
01:43AM 64.0459 -29.6645 73° East  Level FlightAware Approximate
01:44AM 64.0872 -29.3567 73° East  Level FlightAware Approximate
01:45AM 64.1279 -29.0480 73° East  Level FlightAware Approximate
01:46AM 64.1679 -28.7384 73° East  Level FlightAware Approximate
01:47AM 64.2073 -28.4279 74° East  Level FlightAware Approximate
01:48AM 64.2459 -28.1165 74° East  Level FlightAware Approximate
01:49AM 64.2840 -27.8043 74° East  Level FlightAware Approximate
01:50AM 64.3213 -27.4912 74° East  Level FlightAware Approximate
01:51AM 64.3580 -27.1772 75° East  Level FlightAware Approximate
01:52AM 64.3941 -26.8625 75° East  Level FlightAware Approximate
01:53AM 64.4294 -26.5469 75° East  Level FlightAware Approximate
01:54AM 64.4641 -26.2305 76° East  Level FlightAware Approximate
01:55AM 64.4980 -25.9133 76° East  Level FlightAware Approximate
01:56AM 64.5313 -25.5953 76° East  Level FlightAware Approximate
01:57AM 64.5639 -25.2766 76° East  Level FlightAware Approximate
01:58AM 64.5960 -24.9572 77° East  Level FlightAware Approximate
01:59AM 64.6275 -24.6371 77° East  Level FlightAware Approximate
02:00AM 64.6583 -24.3162 77° East  Level FlightAware Approximate
02:01AM 64.6884 -23.9947 78° East  Level FlightAware Approximate
02:02AM 64.7178 -23.6724 78° East  Level FlightAware Approximate
02:03AM 64.7465 -23.3495 78° East  Level FlightAware Approximate
02:04AM 64.7745 -23.0259 78° East  Level FlightAware Approximate
02:05AM 64.8018 -22.7016 79° East  Level FlightAware Approximate
02:06AM 64.8284 -22.3766 79° East  Level FlightAware Approximate
02:07AM 64.8543 -22.0511 79° East  Level FlightAware Approximate
02:08AM 64.8794 -21.7249 80° East  Level FlightAware Approximate
02:09AM 64.9039 -21.3981 80° East  Level FlightAware Approximate
02:10AM 64.9277 -21.0707 80° East  Level FlightAware Approximate
02:11AM 64.9507 -20.7427 80° East  Level FlightAware Approximate
02:12AM 64.9730 -20.4142 81° East  Level FlightAware Approximate
02:13AM 64.9945 -20.0852 81° East  Level FlightAware Approximate
02:14AM 65.0080 -19.7537 85° East  Level FlightAware Approximate
02:15AM 65.0183 -19.4212 86° East  Level FlightAware Approximate
02:16AM 65.0277 -19.0885 86° East  Level FlightAware Approximate
02:17AM 65.0365 -18.7556 86° East  Level FlightAware Approximate
02:18AM 65.0445 -18.4224 87° East  Level FlightAware Approximate
02:19AM 65.0517 -18.0891 87° East  Level FlightAware Approximate
02:20AM 65.0582 -17.7556 87° East  Level FlightAware Approximate
02:21AM 65.0640 -17.4219 88° East  Level FlightAware Approximate
02:22AM 65.0690 -17.0881 88° East  Level FlightAware Approximate
02:23AM 65.0733 -16.7542 88° East  Level FlightAware Approximate
02:24AM 65.0768 -16.4201 88° East  Level FlightAware Approximate
02:25AM 65.0796 -16.0860 89° East  Level FlightAware Approximate
02:26AM 65.0817 -15.7519 89° East  Level FlightAware Approximate
02:27AM 65.0830 -15.4177 89° East  Level FlightAware Approximate
02:28AM 65.0835 -15.0835 90° East  Level FlightAware Approximate
02:29AM 65.0834 -14.7492 90° East  Level FlightAware Approximate
02:30AM 65.0824 -14.4150 90° East  Level FlightAware Approximate
02:31AM 65.0807 -14.0808 91° East  Level FlightAware Approximate
02:32AM 65.0783 -13.7467 91° East  Level FlightAware Approximate
02:33AM 65.0752 -13.4127 91° East  Level FlightAware Approximate
02:34AM 65.0713 -13.0787 91° East  Level FlightAware Approximate
02:35AM 65.0666 -12.7448 92° East  Level FlightAware Approximate
02:36AM 65.0612 -12.4111 92° East  Level FlightAware Approximate
02:37AM 65.0551 -12.0775 92° East  Level FlightAware Approximate
02:38AM 65.0482 -11.7441 93° East  Level FlightAware Approximate
02:39AM 65.0406 -11.4108 93° East  Level FlightAware Approximate
02:40AM 65.0322 -11.0778 93° East  Level FlightAware Approximate
02:41AM 65.0231 -10.7449 94° East  Level FlightAware Approximate
02:42AM 65.0132 -10.4123 94° East  Level FlightAware Approximate
02:43AM 65.0027 -10.0800 94° East  Level FlightAware Approximate
02:44AM 65.0082 -9.7478 85° East  Level FlightAware Approximate
02:45AM 65.0184 -9.4153 86° East  Level FlightAware Approximate
02:46AM 65.0279 -9.0826 86° East  Level FlightAware Approximate
02:47AM 65.0366 -8.7496 86° East  Level FlightAware Approximate
02:48AM 65.0446 -8.4165 87° East  Level FlightAware Approximate
02:49AM 65.0518 -8.0831 87° East  Level FlightAware Approximate
02:50AM 65.0583 -7.7496 87° East  Level FlightAware Approximate
02:51AM 65.0641 -7.4160 88° East  Level FlightAware Approximate
02:52AM 65.0691 -7.0822 88° East  Level FlightAware Approximate
02:53AM 65.0734 -6.7482 88° East  Level FlightAware Approximate
02:54AM 65.0769 -6.4142 88° East  Level FlightAware Approximate
02:55AM 65.0797 -6.0801 89° East  Level FlightAware Approximate
02:56AM 65.0817 -5.7460 89° East  Level FlightAware Approximate
02:57AM 65.0830 -5.4118 89° East  Level FlightAware Approximate
02:58AM 65.0835 -5.0775 90° East  Level FlightAware Approximate
02:59AM 65.0834 -4.7433 90° East  Level FlightAware Approximate
03:00AM 65.0824 -4.4091 90° East  Level FlightAware Approximate
03:01AM 65.0807 -4.0749 91° East  Level FlightAware Approximate
03:02AM 65.0783 -3.7408 91° East  Level FlightAware Approximate
03:03AM 65.0751 -3.4067 91° East  Level FlightAware Approximate
03:04AM 65.0712 -3.0728 91° East  Level FlightAware Approximate
03:05AM 65.0665 -2.7389 92° East  Level FlightAware Approximate
03:06AM 65.0611 -2.4052 92° East  Level FlightAware Approximate
03:07AM 65.0550 -2.0716 92° East  Level FlightAware Approximate
03:08AM 65.0481 -1.7382 93° East  Level FlightAware Approximate
03:09AM 65.0404 -1.4049 93° East  Level FlightAware Approximate
03:10AM 65.0320 -1.0719 93° East  Level FlightAware Approximate
03:11AM 65.0229 -0.7390 94° East  Level FlightAware Approximate
03:12AM 65.0131 -0.4065 94° East  Level FlightAware Approximate
03:13AM 65.0025 -0.0741 94° East  Level FlightAware Approximate
03:14AM 64.8906 -0.0051 181° South  Level FlightAware Approximate
03:15AM 64.7498 -0.0116 181° South  Level FlightAware Approximate
03:16AM 64.6091 -0.0180 181° South  Level FlightAware Approximate
03:17AM 64.4683 -0.0244 181° South  Level FlightAware Approximate
03:18AM 64.3275 -0.0307 181° South  Level FlightAware Approximate
03:19AM 64.1867 -0.0369 181° South  Level FlightAware Approximate
03:20AM 64.0460 -0.0431 181° South  Level FlightAware Approximate
03:21AM 63.9052 -0.0492 181° South  Level FlightAware Approximate
03:22AM 63.7644 -0.0552 181° South  Level FlightAware Approximate
03:23AM 63.6236 -0.0612 181° South  Level FlightAware Approximate
03:24AM 63.4828 -0.0672 181° South  Level FlightAware Approximate
03:25AM 63.3420 -0.0730 181° South  Level FlightAware Approximate
03:26AM 63.2013 -0.0788 181° South  Level FlightAware Approximate
03:27AM 63.0605 -0.0846 181° South  Level FlightAware Approximate
03:28AM 62.9197 -0.0903 181° South  Level FlightAware Approximate
03:29AM 62.7789 -0.0959 181° South  Level FlightAware Approximate
03:30AM 62.6381 -0.1015 181° South  Level FlightAware Approximate
03:31AM 62.4973 -0.1071 181° South  Level FlightAware Approximate
03:32AM 62.3565 -0.1125 181° South  Level FlightAware Approximate
03:33AM 62.2157 -0.1180 181° South  Level FlightAware Approximate
03:34AM 62.0750 -0.1236 181° South  Level FlightAware Approximate
03:35AM 61.9342 -0.1292 181° South  Level FlightAware Approximate
03:36AM 61.7934 -0.1347 181° South  Level FlightAware Approximate
03:37AM 61.6526 -0.1401 181° South  Level FlightAware Approximate
03:38AM 61.5118 -0.1455 181° South  Level FlightAware Approximate
03:39AM 61.3710 -0.1509 181° South  Level FlightAware Approximate
03:40AM 61.2302 -0.1562 181° South  Level FlightAware Approximate
03:41AM 61.0894 -0.1615 181° South  Level FlightAware Approximate
03:42AM 60.9486 -0.1667 181° South  Level FlightAware Approximate
03:43AM 60.8078 -0.1718 181° South  Level FlightAware Approximate
03:44AM 60.6671 -0.1770 181° South  Level FlightAware Approximate
03:45AM 60.5263 -0.1821 181° South  Level FlightAware Approximate
03:46AM 60.3855 -0.1871 181° South  Level FlightAware Approximate
03:47AM 60.2447 -0.1921 181° South  Level FlightAware Approximate
03:48AM 60.1039 -0.1970 181° South  Level FlightAware Approximate
03:49AM 59.9631 -0.2019 181° South  Level FlightAware Approximate
03:50AM 59.8223 -0.2068 181° South  Level FlightAware Approximate
03:51AM 59.6815 -0.2116 181° South  Level FlightAware Approximate
03:52AM 59.5407 -0.2164 181° South  Level FlightAware Approximate
03:53AM 59.3999 -0.2211 181° South  Level FlightAware Approximate
03:54AM 59.2592 -0.2258 181° South  Level FlightAware Approximate
03:55AM 59.1184 -0.2305 181° South  Level FlightAware Approximate
03:56AM 58.9776 -0.2351 181° South  Level FlightAware Approximate
03:57AM 58.8368 -0.2397 181° South  Level FlightAware Approximate
03:58AM 58.6960 -0.2443 181° South  Level FlightAware Approximate
03:59AM 58.5552 -0.2488 181° South  Level FlightAware Approximate
04:00AM 58.4144 -0.2533 181° South  Level FlightAware Approximate
04:01AM 58.2736 -0.2577 181° South  Level FlightAware Approximate
04:02AM 58.1328 -0.2621 181° South  Level FlightAware Approximate
04:03AM 57.9921 -0.2665 181° South  Level FlightAware Approximate
04:04AM 57.8513 -0.2708 181° South  Level FlightAware Approximate
04:05AM 57.7105 -0.2751 181° South  Level FlightAware Approximate
04:06AM 57.5697 -0.2794 181° South  Level FlightAware Approximate
04:07AM 57.4289 -0.2836 181° South  Level FlightAware Approximate
04:08AM 57.2881 -0.2878 181° South  Level FlightAware Approximate
04:09AM 57.1473 -0.2920 181° South  Level FlightAware Approximate
04:10AM 57.0065 -0.2962 181° South  Level FlightAware Approximate
04:11AM 56.8657 -0.3003 181° South  Level FlightAware Approximate
04:12AM 56.7249 -0.3043 181° South  Level FlightAware Approximate
04:13AM 56.5841 -0.3084 181° South  Level FlightAware Approximate
04:14AM 56.4434 -0.3124 181° South  Level FlightAware Approximate
04:15AM 56.3026 -0.3164 181° South  Level FlightAware Approximate
04:16AM 56.1618 -0.3204 181° South  Level FlightAware Approximate
04:17AM 56.0210 -0.3243 181° South  Level FlightAware Approximate
04:18AM 55.8802 -0.3282 181° South  Level FlightAware Approximate
04:19AM 55.7394 -0.3321 181° South  Level FlightAware Approximate
04:20AM 55.5986 -0.3359 181° South  Level FlightAware Approximate
04:21AM 55.4578 -0.3397 181° South  Level FlightAware Approximate
04:22AM 55.3170 -0.3435 181° South  Level FlightAware Approximate
04:23AM 55.1763 -0.3473 181° South  Level FlightAware Approximate
04:24AM 55.0355 -0.3510 181° South  Level FlightAware Approximate
04:25AM 54.8947 -0.3548 181° South  Level FlightAware Approximate
04:26AM 54.7539 -0.3584 181° South  Level FlightAware Approximate
04:27AM 54.6131 -0.3621 181° South  Level FlightAware Approximate
04:28AM 54.4723 -0.3658 181° South  Level FlightAware Approximate
04:29AM 54.3315 -0.3694 181° South  Level FlightAware Approximate
04:30AM 54.1907 -0.3729 181° South  Level FlightAware Approximate
04:31AM 54.0499 -0.3765 181° South  Level FlightAware Approximate
04:32AM 53.9091 -0.3801 181° South  Level FlightAware Approximate
04:33AM 53.7683 -0.3836 181° South  Level FlightAware Approximate
04:33AM 61.5589 21.1683 181° South 460 529 35,000  Level FlightAware ADS-B (YKMB / KRB)
04:34AM 61.5265 21.3224 114° Southeast 463 533 35,000  Level FlightAware ADS-B (YKMB / KRB)
04:36AM 61.4007 21.8443 117° Southeast  Level Estimated
04:37AM 61.3365 22.1059 117° Southeast  Level Estimated
04:38AM 61.2718 22.3663 117° Southeast  Level Estimated
04:39AM 61.2066 22.6257 117° Southeast  Level Estimated
04:40AM 61.1409 22.8840 118° Southeast  Level Estimated
04:41AM 61.0747 23.1413 118° Southeast  Level Estimated
04:42AM 61.0080 23.3974 118° Southeast  Level Estimated
04:43AM 60.9409 23.6525 118° Southeast  Level Estimated
04:44AM 60.8733 23.9065 119° Southeast  Level Estimated
04:45AM 60.8051 24.1595 119° Southeast  Level Estimated
04:46AM 60.7366 24.4113 119° Southeast  Level Estimated
04:47AM 60.6675 24.6621 119° Southeast  Level Estimated
04:48AM 60.5980 24.9118 119° Southeast  Level Estimated
04:49AM 60.5280 25.1604 120° Southeast  Level Estimated
04:50AM 60.4576 25.4079 120° Southeast  Level Estimated
04:51AM 60.3867 25.6544 120° Southeast  Level Estimated
04:52AM 60.3153 25.8998 120° Southeast  Level Estimated
04:53AM 60.2435 26.1441 121° Southeast  Level Estimated
04:54AM 60.1713 26.3874 121° Southeast  Level Estimated
04:55AM 60.0986 26.6295 121° Southeast  Level Estimated
04:56AM 60.0255 26.8706 121° Southeast  Level Estimated
04:57AM 59.9519 27.1107 121° Southeast  Level Estimated
04:58AM 59.8779 27.3497 122° Southeast  Level Estimated
04:59AM 59.8035 27.5876 122° Southeast  Level Estimated
05:00AM 59.7286 27.8244 122° Southeast  Level Estimated
05:01AM 59.6533 28.0602 122° Southeast  Level Estimated
05:02AM 59.5776 28.2949 122° Southeast  Level Estimated
05:03AM 59.5015 28.5286 123° Southeast  Level Estimated
05:04AM 59.4249 28.7612 123° Southeast  Level Estimated
05:05AM 59.3480 28.9928 123° Southeast  Level Estimated
05:06AM 59.2706 29.2233 123° Southeast  Level Estimated
05:07AM 59.1928 29.4528 123° Southeast  Level Estimated
05:08AM 59.1147 29.6812 124° Southeast  Level Estimated
05:09AM 59.0361 29.9086 124° Southeast  Level Estimated
05:10AM 58.9571 30.1349 124° Southeast  Level Estimated
05:11AM 58.8778 30.3602 124° Southeast  Level Estimated
05:12AM 58.7980 30.5845 124° Southeast  Level Estimated
05:13AM 58.7179 30.8077 125° Southeast  Level Estimated
05:14AM 58.6374 31.0299 125° Southeast  Level Estimated
05:15AM 58.5565 31.2511 125° Southeast  Level Estimated
05:16AM 58.4752 31.4713 125° Southeast  Level Estimated
05:17AM 58.3936 31.6904 125° Southeast  Level Estimated
05:18AM 58.3115 31.9085 126° Southeast  Level Estimated
05:19AM 58.2291 32.1257 126° Southeast  Level Estimated
05:20AM 58.1464 32.3418 126° Southeast  Level Estimated
05:21AM 58.0632 32.5569 126° Southeast  Level Estimated
05:22AM 57.9798 32.7710 126° Southeast  Level Estimated
05:23AM 57.8959 32.9841 126° Southeast  Level Estimated
05:24AM 57.8117 33.1962 127° Southeast  Level Estimated
05:25AM 57.7272 33.4073 127° Southeast  Level Estimated
05:26AM 57.6423 33.6175 127° Southeast  Level Estimated
05:27AM 57.5570 33.8266 127° Southeast  Level Estimated
05:28AM 57.4714 34.0348 127° Southeast  Level Estimated
05:29AM 57.3855 34.2420 128° Southeast  Level Estimated
05:30AM 57.2992 34.4482 128° Southeast  Level Estimated
05:31AM 57.2126 34.6535 128° Southeast  Level Estimated
05:32AM 57.1257 34.8578 128° Southeast  Level Estimated
05:33AM 57.0384 35.0611 128° Southeast  Level Estimated
05:34AM 56.9508 35.2635 128° Southeast  Level Estimated
05:35AM 56.8629 35.4649 129° Southeast  Level Estimated
05:36AM 56.7746 35.6654 129° Southeast  Level Estimated
05:37AM 56.6861 35.8650 129° Southeast  Level Estimated
05:38AM 56.5972 36.0636 129° Southeast  Level Estimated
05:39AM 56.5080 36.2613 129° Southeast  Level Estimated
05:40AM 56.4185 36.4580 129° Southeast  Level Estimated
05:41AM 56.3286 36.6538 130° Southeast  Level Estimated
05:42AM 56.2385 36.8487 130° Southeast  Level Estimated
05:43AM 56.1481 37.0427 130° Southeast  Level Estimated
05:44AM 56.0573 37.2358 130° Southeast  Level Estimated
05:45AM 55.9726 37.4146 130° Southeast  Level Estimated
05:46AM 55.9726 37.4146 344° North  Level Estimated
05:47AM 55.9726 37.4146 344° North  Level Estimated
05:48AM 55.9726 37.4146 344° North  Level Estimated
05:49AM 55.9726 37.4146 344° North  Level Estimated
05:50AM 55.9726 37.4146 344° North  Level Estimated
05:51AM 55.9726 37.4146 344° North  Level Estimated
05:52AM 55.9726 37.4146 344° North  Level Estimated
05:53AM 55.9726 37.4146 344° North  Level Estimated
05:54AM 55.9726 37.4146 344° North  Level Estimated
05:55AM 55.9726 37.4146 344° North  Level Estimated
05:56AM 55.9726 37.4146 344° North  Level Estimated
05:57AM 55.9726 37.4146 344° North  Level Estimated
05:58AM 55.9726 37.4146 344° North  Level Estimated
05:59AM 55.9726 37.4146 344° North  Level Estimated
06:00AM 55.9726 37.4146 344° North  Level Estimated
06:01AM 55.9726 37.4146 344° North  Level Estimated
06:02AM 55.9726 37.4146 344° North  Level Estimated
06:03AM 55.9726 37.4146 344° North  Level Estimated
06:04AM 55.9726 37.4146 344° North  Level Estimated
06:05AM 55.9726 37.4146 344° North  Level Estimated
06:06AM 55.9726 37.4146 344° North  Level Estimated
06:07AM 55.9726 37.4146 344° North  Level Estimated
06:08AM 55.9726 37.4146 344° North  Level Estimated
06:09AM 55.9726 37.4146 344° North  Level Estimated
06:10AM 55.9726 37.4146 344° North  Level Estimated
06:11AM 55.9726 37.4146 344° North  Level Estimated
06:12AM 55.9726 37.4146 344° North  Level Estimated
06:13AM 55.9726 37.4146 344° North  Level Estimated
06:14AM 55.9726 37.4146 344° North  Level Estimated
06:15AM 55.9726 37.4146 344° North  Level Estimated
06:16AM 55.9726 37.4146 344° North  Level Estimated
06:17AM 55.9726 37.4146 344° North  Level Estimated
06:18AM 55.9726 37.4146 344° North  Level Estimated
06:19AM 55.9726 37.4146 344° North  Level Estimated
06:20AM 55.9726 37.4146 344° North  Level Estimated
06:21AM 55.9726 37.4146 344° North  Level Estimated
06:22AM 55.9726 37.4146 344° North  Level Estimated
06:23AM 55.9726 37.4146 344° North  Level Estimated
06:24AM 55.9726 37.4146 344° North  Level Estimated
06:25AM 55.9726 37.4146 344° North  Level Estimated
06:26AM 55.9726 37.4146 344° North  Level Estimated
06:27AM 55.9726 37.4146 344° North  Level Estimated
06:28AM 55.9726 37.4146 344° North  Level Estimated
06:29AM 55.9726 37.4146 344° North  Level Estimated
06:30AM 55.9726 37.4146 344° North  Level Estimated
06:31AM 55.9726 37.4146 344° North  Level Estimated
06:32AM 55.9726 37.4146 344° North  Level Estimated
06:33AM 55.9726 37.4146 344° North  Level Estimated
06:34AM 55.9726 37.4146 344° North  Level Estimated
06:35AM 55.9726 37.4146 344° North  Level Estimated
06:36AM 55.9726 37.4146 344° North  Level Estimated
06:37AM 55.9726 37.4146 344° North  Level Estimated
06:38AM 55.9726 37.4146 344° North  Level Estimated
06:39AM 55.9726 37.4146 344° North  Level Estimated
06:40AM 55.9726 37.4146 344° North  Level Estimated
06:41AM 55.9726 37.4146 344° North  Level Estimated
06:42AM 55.9726 37.4146 344° North  Level Estimated
06:43AM 55.9726 37.4146 344° North  Level Estimated
06:44AM 55.9726 37.4146 344° North  Level Estimated
06:45AM 55.9726 37.4146 344° North  Level Estimated
06:46AM 55.9726 37.4146 344° North  Level Estimated
06:47AM 55.9726 37.4146 344° North  Level Estimated
06:48AM 55.9726 37.4146 344° North  Level Estimated
06:49AM 55.9726 37.4146 344° North  Level Estimated
06:50AM 55.9726 37.4146 344° North  Level Estimated
06:51AM 55.9726 37.4146 344° North  Level Estimated
06:52AM 55.9726 37.4146 344° North  Level Estimated
06:53AM 55.9726 37.4146 344° North  Level Estimated
06:54AM 55.9726 37.4146 344° North  Level Estimated
06:55AM 55.9726 37.4146 344° North  Level Estimated
06:56AM 55.9726 37.4146 344° North  Level Estimated
06:57AM 55.9726 37.4146 344° North  Level Estimated
06:58AM 55.9726 37.4146 344° North  Level Estimated
06:59AM 55.9726 37.4146 344° North  Level Estimated
07:00AM 55.9726 37.4146 344° North  Level Estimated
07:01AM 55.9726 37.4146 344° North  Level Estimated
07:02AM 55.9726 37.4146 344° North  Level Estimated
07:03AM 55.9726 37.4146 344° North  Level Estimated
07:04AM 55.9726 37.4146 344° North  Level Estimated
07:05AM 55.9726 37.4146 344° North  Level Estimated
07:06AM 55.9726 37.4146 344° North  Level Estimated
07:07AM 55.9726 37.4146 344° North  Level Estimated
07:08AM 55.9726 37.4146 344° North  Level Estimated
07:09AM 55.9726 37.4146 344° North  Level Estimated
07:10AM 55.9726 37.4146 344° North  Level Estimated
07:11AM 55.9726 37.4146 344° North  Level Estimated
07:12AM 55.9726 37.4146 344° North  Level Estimated
07:13AM 55.9726 37.4146 344° North  Level Estimated
07:14AM 55.9726 37.4146 344° North  Level Estimated
07:15AM 55.9726 37.4146 344° North  Level Estimated
07:16AM 55.9726 37.4146 344° North  Level Estimated
07:17AM 55.9726 37.4146 344° North  Level Estimated
07:18AM 55.9726 37.4146 344° North  Level Estimated
07:19AM 55.9726 37.4146 344° North  Level Estimated
07:20AM 55.9726 37.4146 344° North  Level Estimated
07:21AM 55.9726 37.4146 344° North  Level Estimated
07:22AM 55.9726 37.4146 344° North  Level Estimated
07:23AM 55.9726 37.4146 344° North  Level Estimated
07:24AM 55.9726 37.4146 344° North  Level Estimated
07:25AM 55.9726 37.4146 344° North  Level Estimated
07:26AM 55.9726 37.4146 344° North  Level Estimated
07:27AM 55.9726 37.4146 344° North  Level Estimated
07:28AM 55.9726 37.4146 344° North  Level Estimated
07:29AM 55.9726 37.4146 344° North  Level Estimated
07:30AM 55.9726 37.4146 344° North  Level Estimated
07:31AM 55.9726 37.4146 344° North  Level Estimated
07:32AM 55.9726 37.4146 344° North  Level Estimated
07:33AM 55.9726 37.4146 344° North  Level Estimated
07:34AM 55.9726 37.4146 344° North  Level Estimated
07:35AM 55.9726 37.4146 344° North  Level Estimated
07:36AM 55.9726 37.4146 344° North  Level Estimated
07:37AM 55.9726 37.4146 344° North  Level Estimated
07:38AM 55.9726 37.4146 344° North  Level Estimated
07:39AM 55.9726 37.4146 344° North  Level Estimated
07:40AM 55.9726 37.4146 344° North  Level Estimated
07:41AM 55.9726 37.4146 344° North  Level Estimated
07:42AM 55.9726 37.4146 344° North  Level Estimated
07:43AM 55.9726 37.4146 344° North  Level Estimated
07:44AM 55.9726 37.4146 344° North  Level Estimated
07:45AM 55.9726 37.4146 344° North  Level Estimated
07:46AM 55.9726 37.4146 344° North  Level Estimated
07:47AM 55.9726 37.4146 344° North  Level Estimated
07:48AM 55.9726 37.4146 344° North  Level Estimated
07:49AM 55.9726 37.4146 344° North  Level Estimated
07:50AM 55.9726 37.4146 344° North  Level Estimated
07:51AM 55.9726 37.4146 344° North  Level Estimated
07:52AM 55.9726 37.4146 344° North  Level Estimated
07:53AM 55.9726 37.4146 344° North  Level Estimated
07:54AM 55.9726 37.4146 344° North  Level Estimated
07:55AM 55.9726 37.4146 344° North  Level Estimated
07:56AM 55.9726 37.4146 344° North  Level Estimated
07:57AM 55.9726 37.4146 344° North  Level Estimated
07:58AM 55.9726 37.4146 344° North  Level Estimated
07:59AM 55.9726 37.4146 344° North  Level Estimated
08:00AM 55.9726 37.4146 344° North  Level Estimated
08:01AM 55.9726 37.4146 344° North  Level Estimated
08:02AM 55.9726 37.4146 344° North  Level Estimated
08:03AM 55.9726 37.4146 344° North  Level Estimated
08:04AM 55.9726 37.4146 344° North  Level Estimated
08:05AM 55.9726 37.4146 344° North  Level Estimated
08:06AM 55.9726 37.4146 344° North  Level Estimated
08:07AM 55.9726 37.4146 344° North  Level Estimated
08:08AM 55.9726 37.4146 344° North  Level Estimated
08:09AM 55.9726 37.4146 344° North  Level Estimated
08:10AM 55.9726 37.4146 344° North  Level Estimated
08:11AM 55.9726 37.4146 344° North  Level Estimated
08:12AM 55.9726 37.4146 344° North  Level Estimated
08:13AM 55.9726 37.4146 344° North  Level Estimated
08:14AM 55.9726 37.4146 344° North  Level Estimated
08:15AM 55.9726 37.4146 344° North  Level Estimated
08:16AM 55.9726 37.4146 344° North  Level Estimated
08:17AM 55.9726 37.4146 344° North  Level Estimated
08:18AM 55.9726 37.4146 344° North  Level Estimated
08:19AM 55.9726 37.4146 344° North  Level Estimated
08:20AM 55.9726 37.4146 344° North  Level Estimated
08:21AM 55.9726 37.4146 344° North  Level Estimated
08:22AM 55.9726 37.4146 344° North  Level Estimated
08:23AM 55.9726 37.4146 344° North  Level Estimated
08:24AM 55.9726 37.4146 344° North  Level Estimated
08:25AM 55.9726 37.4146 344° North  Level Estimated
08:26AM 55.9726 37.4146 344° North  Level Estimated
08:27AM 55.9726 37.4146 344° North  Level Estimated
08:28AM 55.9726 37.4146 344° North  Level Estimated
08:29AM 55.9726 37.4146 344° North  Level Estimated
08:30AM 55.9726 37.4146 344° North  Level Estimated
08:31AM 55.9726 37.4146 344° North  Level Estimated
08:32AM 55.9726 37.4146 344° North  Level Estimated
08:33AM 55.9726 37.4146 344° North  Level Estimated
08:34AM 55.9726 37.4146 344° North  Level Estimated
08:35AM 55.9726 37.4146 344° North  Level Estimated
08:36AM 55.9726 37.4146 344° North  Level Estimated
08:37AM 55.9726 37.4146 344° North  Level Estimated
08:38AM 55.9726 37.4146 344° North  Level Estimated
08:39AM 55.9726 37.4146 344° North  Level Estimated
08:40AM 55.9726 37.4146 344° North  Level Estimated
08:41AM 55.9726 37.4146 344° North  Level Estimated
08:42AM 55.9726 37.4146 344° North  Level Estimated
08:43AM 55.9726 37.4146 344° North  Level Estimated
08:44AM 55.9726 37.4146 344° North  Level Estimated
08:45AM 55.9726 37.4146 344° North  Level Estimated
08:46AM 55.9726 37.4146 344° North  Level Estimated
08:47AM 55.9726 37.4146 344° North  Level Estimated
08:48AM 55.9726 37.4146 344° North  Level Estimated
08:49AM 55.9726 37.4146 344° North  Level Estimated
08:50AM 55.9726 37.4146 344° North  Level Estimated
08:51AM 55.9726 37.4146 344° North  Level Estimated
08:52AM 55.9726 37.4146 344° North  Level Estimated
08:53AM 55.9726 37.4146 344° North  Level Estimated
08:54AM 55.9726 37.4146 344° North  Level Estimated
08:55AM 55.9726 37.4146 344° North  Level Estimated
08:56AM 55.9726 37.4146 344° North  Level Estimated
08:57AM 55.9726 37.4146 344° North  Level Estimated
08:58AM 55.9726 37.4146 344° North  Level Estimated
08:59AM 55.9726 37.4146 344° North  Level Estimated
09:00AM 55.9726 37.4146 344° North  Level Estimated
09:01AM 55.9726 37.4146 344° North  Level Estimated
09:02AM 55.9726 37.4146 344° North  Level Estimated
09:03AM 55.9726 37.4146 344° North  Level Estimated
09:04AM 55.9726 37.4146 344° North  Level Estimated
09:05AM 55.9726 37.4146 344° North  Level Estimated
09:06AM 55.9726 37.4146 344° North  Level Estimated
09:07AM 55.9726 37.4146 344° North  Level Estimated
09:08AM 55.9726 37.4146 344° North  Level Estimated
09:09AM 55.9726 37.4146 344° North  Level Estimated
09:10AM 55.9726 37.4146 344° North  Level Estimated
09:11AM 55.9726 37.4146 344° North  Level Estimated
09:12AM 55.9726 37.4146 344° North  Level Estimated
09:13AM 55.9726 37.4146 344° North  Level Estimated
09:14AM 55.9726 37.4146 344° North  Level Estimated
09:15AM 55.9726 37.4146 344° North  Level Estimated